Forest fire From: 18-06-2018 11:00 Until: 19-06-2018 10:14 warning for: Forest fire Level: Yellow info button
suomi:
Metsäpalovaroitus on voimassa.

svenska:
Varning för skogsbrand gäller.

english:
A forest fire warning is in force. 


Thunder radar more information blitzortung!


Löydät sääaseman tiedot myös:

European Weather Network

Finland Weather Exchange

Weather Underground

AWEKAS



Weather Underground säähistoriasivu

Päivittäin yhteenveto Lokakuu 23, 2017 Yksiköt:  Englantilaiset    Metriset   Molemmat
« Edellinen Päivä
Seuraava Päivä »
Päivittäin Viikoittain Kuukausittain Vuosittain Mukautettu
  Korkea: Matala: Keskiarvo:
Lämpötila: TemperatureC °F -2.4 °F -1.1 °F
Kastepiste: DewpointC °F -2.8 °F -1.6 °F
Kosteus: Humidity % 95 % 95 %
Tuulen nopeus: WindSpeedKMH mph 0.0 mph 0 mph
Tuulenpuuska: WindSpeedGustKMH mph - -
Tuuli:- - North
Ilmanpaine: PressurehPa in 1021.9 in -
Sade: 0.0 in    
Historical Graphs
 
 
Taulukkotiedot Lokakuu 23, 2017
Aika Lämpötila Kastepiste Ilmanpaine Tuuli Tuulen nopeus Tuulenpuuska Kosteus Sademäärä (tunneittain)
TemperatureC °F DewpointC °F PressurehPa in Calm     Humidity % HourlyPrecipMM in
00:00 1.2 °F 0.8 °F 1021.9 in Calm     97 % 0.0 in
00:15 1.1 °F 0.5 °F 1022.2 in Calm     96 % 0.0 in
00:30 0.9 °F 0.3 °F 1022.2 in Calm     96 % 0.0 in
00:45 0.7 °F 0.2 °F 1022.6 in Calm     96 % 0.0 in
01:00 0.6 °F 0.0 °F 1022.6 in Calm     96 % 0.0 in
01:15 0.3 °F -0.3 °F 1022.6 in Calm     96 % 0.0 in
01:30 0.1 °F -0.5 °F 1022.9 in Calm     96 % 0.0 in
01:45 0.2 °F -0.3 °F 1022.9 in Calm     97 % 0.0 in
02:00 0.2 °F -0.3 °F 1022.9 in Calm     97 % 0.0 in
02:15 0.2 °F -0.3 °F 1022.9 in Calm     97 % 0.0 in
02:30 0.1 °F -0.4 °F 1023.2 in Calm     97 % 0.0 in
02:45 -0.1 °F -0.5 °F 1023.2 in Calm     97 % 0.0 in
03:00 -0.3 °F -0.8 °F 1023.6 in Calm   3.2 mph 97 % 0.0 in
03:15 -0.5 °F -1.1 °F 1023.6 in Calm     96 % 0.0 in
03:30 -0.8 °F -1.3 °F 1023.6 in Calm     96 % 0.0 in
03:45 -0.9 °F -1.3 °F 1023.6 in Calm     97 % 0.0 in
04:00 -1.0 °F -1.4 °F 1023.9 in Calm     97 % 0.0 in
04:15 -1.2 °F -1.6 °F 1023.9 in Calm     97 % 0.0 in
04:30 -1.3 °F -1.7 °F 1023.9 in Calm     97 % 0.0 in
04:45 -1.5 °F -1.9 °F 1023.9 in Calm     97 % 0.0 in
05:00 -1.7 °F -2.3 °F 1023.9 in Calm     96 % 0.0 in
05:15 -1.9 °F -2.3 °F 1024.3 in Calm     97 % 0.0 in
05:30 -1.9 °F -2.4 °F 1024.3 in Calm     97 % 0.0 in
05:45 -1.9 °F -2.3 °F 1024.3 in Calm     97 % 0.0 in
06:00 -1.8 °F -2.2 °F 1024.6 in Calm     97 % 0.0 in
06:15 -1.7 °F -2.1 °F 1024.6 in Calm     97 % 0.0 in
06:30 -1.4 °F -1.9 °F 1024.9 in Calm     97 % 0.0 in
06:45 -1.3 °F -1.7 °F 1024.9 in Calm     97 % 0.0 in
07:00 -1.4 °F -1.9 °F 1024.9 in Calm     97 % 0.0 in
07:15 -1.7 °F -2.1 °F 1025.3 in Calm     97 % 0.0 in
07:30 -1.8 °F -2.2 °F 1025.3 in Calm     97 % 0.0 in
07:45 -1.9 °F -2.4 °F 1025.6 in Calm     97 % 0.0 in
08:00 -2.2 °F -2.6 °F 1026.0 in Calm   4.8 mph 97 % 0.0 in
08:15 -2.3 °F -2.7 °F 1026.0 in Calm     97 % 0.0 in
08:30 -2.4 °F -2.8 °F 1026.0 in Calm     97 % 0.0 in
08:45 -2.3 °F -2.7 °F 1026.3 in Calm   1.6 mph 97 % 0.0 in
09:00 -2.3 °F -2.7 °F 1026.6 in Calm     97 % 0.0 in
09:15 -2.2 °F -2.6 °F 1026.6 in Calm   1.6 mph 97 % 0.0 in
09:30 -2.1 °F -2.5 °F 1027.0 in Calm     97 % 0.0 in
09:45 -2.1 °F -2.5 °F 1027.0 in Calm     97 % 0.0 in
10:00 -2.1 °F -2.5 °F 1027.0 in Calm     97 % 0.0 in
10:15 -2.1 °F -2.5 °F 1027.3 in Calm     97 % 0.0 in
10:30 -2.0 °F -2.4 °F 1027.3 in Calm     97 % 0.0 in
10:45 -1.9 °F -2.4 °F 1027.7 in Calm     97 % 0.0 in
11:00 -1.9 °F -2.3 °F 1027.7 in Calm     97 % 0.0 in
11:15 -1.7 °F -2.1 °F 1027.7 in Calm   3.2 mph 97 % 0.0 in
11:30 -1.7 °F -2.1 °F 1028.0 in Calm     97 % 0.0 in
11:45 -1.7 °F -2.1 °F 1028.0 in Calm   1.6 mph 97 % 0.0 in
12:00 -1.7 °F -2.1 °F 1028.0 in Calm   3.2 mph 97 % 0.0 in
12:15 -1.6 °F -2.0 °F 1028.0 in Calm     97 % 0.0 in
12:30 -1.4 °F -1.9 °F 1028.0 in Calm     97 % 0.0 in
12:45 -1.3 °F -1.9 °F 1028.0 in Calm     96 % 0.0 in
13:00 -1.2 °F -1.8 °F 1028.3 in Calm     96 % 0.0 in
13:15 -1.1 °F -1.7 °F 1028.3 in Calm     96 % 0.0 in
13:30 -1.1 °F -1.8 °F 1028.7 in Calm     95 % 0.0 in
13:45 -1.0 °F -1.7 °F 1028.7 in Calm   1.6 mph 95 % 0.0 in
14:00 -0.8 °F -1.5 °F 1028.7 in Calm     95 % 0.0 in
14:15 -0.8 °F -1.5 °F 1028.7 in Calm     95 % 0.0 in
14:30 -0.8 °F -1.5 °F 1028.7 in Calm     95 % 0.0 in
14:45 -0.7 °F -1.4 °F 1028.7 in Calm     95 % 0.0 in
15:00 -0.7 °F -1.4 °F 1028.7 in Calm   1.6 mph 95 % 0.0 in
15:15 -0.8 °F -1.5 °F 1028.7 in Calm   1.6 mph 95 % 0.0 in
15:30 -0.9 °F -1.6 °F 1028.7 in Calm     95 % 0.0 in
15:45 -0.9 °F -1.6 °F 1028.7 in Calm     95 % 0.0 in
16:00 -0.9 °F -1.6 °F 1028.7 in Calm     95 % 0.0 in
16:15 -0.9 °F -1.6 °F 1029.0 in Calm   3.2 mph 95 % 0.0 in
16:30 -0.8 °F -1.5 °F 1029.0 in Calm   6.4 mph 95 % 0.0 in
16:45 -1.0 °F -1.7 °F 1029.0 in Calm   3.2 mph 95 % 0.0 in
17:00 -1.1 °F -1.8 °F 1029.3 in Calm     95 % 0.0 in
17:15 -1.1 °F -1.8 °F 1029.3 in Calm   1.6 mph 95 % 0.0 in
17:30 -1.1 °F -1.8 °F 1029.3 in Calm   1.6 mph 95 % 0.0 in
17:45 -1.2 °F -1.9 °F 1029.7 in Calm   6.4 mph 95 % 0.0 in
18:00 -1.3 °F -2.0 °F 1029.7 in Calm   3.2 mph 95 % 0.0 in
18:15 -1.2 °F -1.9 °F 1029.7 in Calm   3.2 mph 95 % 0.0 in
18:30 -1.3 °F -2.0 °F 1029.7 in Calm   9.7 mph 95 % 0.0 in
18:45 -1.3 °F -2.0 °F 1029.7 in Calm     95 % 0.0 in
19:00 -1.2 °F -1.9 °F 1030.0 in Calm   1.6 mph 95 % 0.0 in
19:15 -1.2 °F -1.9 °F 1030.0 in Calm     95 % 0.0 in
19:30 -1.2 °F -1.9 °F 1030.0 in Calm     95 % 0.0 in
19:45 -1.2 °F -1.9 °F 1030.0 in Calm     95 % 0.0 in
20:15 -1.0 °F -1.7 °F 1030.4 in Calm     95 % 0.0 in
20:30 -0.9 °F -1.6 °F 1030.4 in Calm     95 % 0.0 in
20:45 -0.9 °F -1.6 °F 1030.4 in Calm     95 % 0.0 in
21:00 -0.9 °F -1.6 °F 1030.4 in Calm     95 % 0.0 in
21:15 -0.8 °F -1.5 °F 1030.4 in Calm     95 % 0.0 in
21:30 -0.8 °F -1.5 °F 1030.4 in Calm     95 % 0.0 in
21:45 -0.8 °F -1.5 °F 1030.4 in Calm     95 % 0.0 in
22:00 -0.8 °F -1.5 °F 1030.4 in Calm     95 % 0.0 in
22:15 -0.8 °F -1.5 °F 1030.4 in Calm     95 % 0.0 in
22:30 -0.8 °F -1.5 °F 1030.7 in Calm     95 % 0.0 in
22:45 -0.8 °F -1.5 °F 1030.7 in Calm     95 % 0.0 in
23:00 -0.8 °F -1.5 °F 1030.7 in Calm     95 % 0.0 in
23:15 -0.7 °F -1.4 °F 1030.7 in Calm     95 % 0.0 in
23:30 -0.7 °F -1.4 °F 1031.0 in Calm     95 % 0.0 in
23:45 -0.7 °F -1.4 °F 1031.0 in Calm     95 % 0.0 in
Esan sääasema
Terveisin Weather Underground - 2.75 mb

Alkuperäinen skripti  Jim McMurry - jmcmurry@mwt.net Sovitettu myös templatelle  Wim van der Kuil - Leuven-Template.eu

Laitteet joita käytämme:

Sääasema
Davis VP2

Sääasemaohjelma
Cumulus

Sääaseman tietokone
Asus EeePC

Palveluntarjoaja
Suncomet

Davis VP2

Cumulus

Asus EeePC

Suncomet